Castle Valley, Utah
Current Conditions -  °F | °C
As of 3:53 PM on Wednesday 22 Oct 2014 (Local Time) from KCNY Reporting Station
Clear Clear  
Wind Chill: 72°   Ceiling: Unl
Heat Index: 72°   Visibility: 10mi
Dew Point: 36°   Wind: 0mph
Humidity: 27%   Direction: NA
Pressure: 30.07"   Gusts: NA
Location:  38.6903°N, 109.256°W
Report Text: KCNY 222153Z AUTO 00000KT 10SM CLR 22/02 A3007 RMK AO2 SLP143 T02220022
Loading
Personal Weather Stations






























Interactive Weather Map New forecast layout! Learn more

10-Day Weather Forecast

Advertisements
Track Severe Weather on mobile